sensor_id;sensor_type;location;lat;lon;timestamp;P1;durP1;ratioP1;P2;durP2;ratioP2
54464;SDS011;40374;49.480;20.016;2022-12-04T00:01:42;402.52;;;160.55;;
54464;SDS011;40374;49.480;20.016;2022-12-04T00:04:10;376.42;;;140.60;;
54464;SDS011;40374;49.480;20.016;2022-12-04T00:06:39;372.38;;;147.23;;
54464;SDS011;40374;49.480;20.016;2022-12-04T00:09:06;363.17;;;136.27;;
54464;SDS011;40374;49.480;20.016;2022-12-04T00:11:35;357.48;;;135.35;;
54464;SDS011;40374;49.480;20.016;2022-12-04T00:14:02;386.60;;;143.50;;
54464;SDS011;40374;49.480;20.016;2022-12-04T00:16:33;377.58;;;142.05;;
54464;SDS011;40374;49.480;20.016;2022-12-04T00:19:01;366.13;;;141.23;;
54464;SDS011;40374;49.480;20.016;2022-12-04T00:21:29;353.90;;;139.60;;
54464;SDS011;40374;49.480;20.016;2022-12-04T00:23:56;350.42;;;138.07;;
54464;SDS011;40374;49.480;20.016;2022-12-04T00:26:25;351.50;;;133.50;;
54464;SDS011;40374;49.480;20.016;2022-12-04T00:28:53;360.27;;;137.57;;
54464;SDS011;40374;49.480;20.016;2022-12-04T00:31:23;352.30;;;131.68;;
54464;SDS011;40374;49.480;20.016;2022-12-04T00:33:52;346.42;;;125.65;;
54464;SDS011;40374;49.480;20.016;2022-12-04T00:36:21;344.55;;;129.40;;
54464;SDS011;40374;49.480;20.016;2022-12-04T00:38:50;327.55;;;125.80;;
54464;SDS011;40374;49.480;20.016;2022-12-04T00:41:19;333.98;;;134.23;;
54464;SDS011;40374;49.480;20.016;2022-12-04T00:43:51;342.02;;;133.35;;
54464;SDS011;40374;49.480;20.016;2022-12-04T00:46:19;347.65;;;132.75;;
54464;SDS011;40374;49.480;20.016;2022-12-04T00:48:46;328.40;;;123.85;;
54464;SDS011;40374;49.480;20.016;2022-12-04T00:51:15;429.95;;;184.32;;
54464;SDS011;40374;49.480;20.016;2022-12-04T00:53:47;368.63;;;146.82;;
54464;SDS011;40374;49.480;20.016;2022-12-04T00:56:20;363.83;;;147.48;;
54464;SDS011;40374;49.480;20.016;2022-12-04T00:58:55;369.98;;;148.30;;
54464;SDS011;40374;49.480;20.016;2022-12-04T01:01:27;357.08;;;144.10;;
54464;SDS011;40374;49.480;20.016;2022-12-04T01:03:57;340.75;;;132.05;;
54464;SDS011;40374;49.480;20.016;2022-12-04T01:06:28;365.50;;;144.70;;
54464;SDS011;40374;49.480;20.016;2022-12-04T01:09:01;333.48;;;132.70;;
54464;SDS011;40374;49.480;20.016;2022-12-04T01:11:37;347.73;;;133.63;;
54464;SDS011;40374;49.480;20.016;2022-12-04T01:14:05;343.65;;;139.25;;
54464;SDS011;40374;49.480;20.016;2022-12-04T01:16:37;331.90;;;129.70;;
54464;SDS011;40374;49.480;20.016;2022-12-04T01:19:13;324.83;;;123.15;;
54464;SDS011;40374;49.480;20.016;2022-12-04T01:21:45;291.20;;;119.00;;
54464;SDS011;40374;49.480;20.016;2022-12-04T01:24:15;313.83;;;116.00;;
54464;SDS011;40374;49.480;20.016;2022-12-04T01:26:46;286.00;;;113.72;;
54464;SDS011;40374;49.480;20.016;2022-12-04T01:29:13;286.92;;;113.38;;
54464;SDS011;40374;49.480;20.016;2022-12-04T01:31:41;281.15;;;111.28;;
54464;SDS011;40374;49.480;20.016;2022-12-04T01:34:08;298.73;;;112.50;;
54464;SDS011;40374;49.480;20.016;2022-12-04T01:36:44;292.80;;;113.80;;
54464;SDS011;40374;49.480;20.016;2022-12-04T01:39:14;287.90;;;111.50;;
54464;SDS011;40374;49.480;20.016;2022-12-04T01:41:52;293.65;;;110.63;;
54464;SDS011;40374;49.480;20.016;2022-12-04T01:44:24;283.25;;;112.07;;
54464;SDS011;40374;49.480;20.016;2022-12-04T01:46:53;288.15;;;113.10;;
54464;SDS011;40374;49.480;20.016;2022-12-04T01:49:23;287.13;;;111.63;;
54464;SDS011;40374;49.480;20.016;2022-12-04T01:51:58;329.58;;;127.20;;
54464;SDS011;40374;49.480;20.016;2022-12-04T01:54:33;324.15;;;124.72;;
54464;SDS011;40374;49.480;20.016;2022-12-04T01:57:08;318.02;;;123.90;;
54464;SDS011;40374;49.480;20.016;2022-12-04T01:59:39;347.27;;;134.90;;
54464;SDS011;40374;49.480;20.016;2022-12-04T02:02:21;343.48;;;136.18;;
54464;SDS011;40374;49.480;20.016;2022-12-04T02:04:52;328.23;;;126.22;;
54464;SDS011;40374;49.480;20.016;2022-12-04T02:07:20;291.17;;;113.57;;
54464;SDS011;40374;49.480;20.016;2022-12-04T02:09:48;287.85;;;108.28;;
54464;SDS011;40374;49.480;20.016;2022-12-04T02:12:23;263.50;;;100.88;;
54464;SDS011;40374;49.480;20.016;2022-12-04T02:28:21;296.42;;;110.70;;
54464;SDS011;40374;49.480;20.016;2022-12-04T02:30:54;290.95;;;110.50;;
54464;SDS011;40374;49.480;20.016;2022-12-04T02:36:35;298.65;;;113.20;;
54464;SDS011;40374;49.480;20.016;2022-12-04T02:44:38;287.92;;;105.70;;
54464;SDS011;40374;49.480;20.016;2022-12-04T02:47:11;282.10;;;111.05;;
54464;SDS011;40374;49.480;20.016;2022-12-04T02:49:50;293.42;;;106.22;;
54464;SDS011;40374;49.480;20.016;2022-12-04T02:52:23;285.30;;;108.43;;
54464;SDS011;40374;49.480;20.016;2022-12-04T02:55:00;266.88;;;99.90;;
54464;SDS011;40374;49.480;20.016;2022-12-04T02:57:35;272.63;;;102.30;;
54464;SDS011;40374;49.480;20.016;2022-12-04T03:00:07;273.15;;;103.05;;
54464;SDS011;40374;49.480;20.016;2022-12-04T03:02:40;307.88;;;125.38;;
54464;SDS011;40374;49.480;20.016;2022-12-04T03:05:16;288.13;;;118.75;;
54464;SDS011;40374;49.480;20.016;2022-12-04T03:07:51;282.10;;;105.97;;
54464;SDS011;40374;49.480;20.016;2022-12-04T03:10:31;252.05;;;100.80;;
54464;SDS011;40374;49.480;20.016;2022-12-04T03:13:04;265.30;;;103.10;;
54464;SDS011;40374;49.480;20.016;2022-12-04T03:15:37;259.20;;;97.80;;
54464;SDS011;40374;49.480;20.016;2022-12-04T03:18:17;256.90;;;95.80;;
54464;SDS011;40374;49.480;20.016;2022-12-04T03:20:49;239.65;;;94.78;;
54464;SDS011;40374;49.480;20.016;2022-12-04T03:23:25;254.95;;;98.55;;
54464;SDS011;40374;49.480;20.016;2022-12-04T03:26:08;243.38;;;93.78;;
54464;SDS011;40374;49.480;20.016;2022-12-04T03:28:46;269.25;;;98.10;;
54464;SDS011;40374;49.480;20.016;2022-12-04T03:31:33;252.35;;;100.80;;
54464;SDS011;40374;49.480;20.016;2022-12-04T03:34:06;286.40;;;110.07;;
54464;SDS011;40374;49.480;20.016;2022-12-04T03:36:36;271.77;;;106.60;;
54464;SDS011;40374;49.480;20.016;2022-12-04T03:39:24;248.45;;;104.78;;
54464;SDS011;40374;49.480;20.016;2022-12-04T03:42:02;261.98;;;101.00;;
54464;SDS011;40374;49.480;20.016;2022-12-04T03:44:38;244.35;;;97.13;;
54464;SDS011;40374;49.480;20.016;2022-12-04T03:55:25;251.07;;;92.30;;
54464;SDS011;40374;49.480;20.016;2022-12-04T03:58:02;259.23;;;95.50;;
54464;SDS011;40374;49.480;20.016;2022-12-04T04:00:35;233.88;;;93.88;;
54464;SDS011;40374;49.480;20.016;2022-12-04T04:03:07;272.83;;;105.32;;
54464;SDS011;40374;49.480;20.016;2022-12-04T04:05:40;223.25;;;89.72;;
54464;SDS011;40374;49.480;20.016;2022-12-04T04:08:13;242.35;;;92.38;;
54464;SDS011;40374;49.480;20.016;2022-12-04T04:10:54;227.32;;;88.32;;
54464;SDS011;40374;49.480;20.016;2022-12-04T04:13:29;222.43;;;83.38;;
54464;SDS011;40374;49.480;20.016;2022-12-04T04:16:23;207.37;;;76.53;;
54464;SDS011;40374;49.480;20.016;2022-12-04T04:19:14;223.18;;;81.03;;
54464;SDS011;40374;49.480;20.016;2022-12-04T04:22:03;234.80;;;83.90;;
54464;SDS011;40374;49.480;20.016;2022-12-04T04:24:57;219.30;;;86.72;;
54464;SDS011;40374;49.480;20.016;2022-12-04T04:27:30;235.52;;;86.57;;
54464;SDS011;40374;49.480;20.016;2022-12-04T04:29:58;228.43;;;89.50;;
54464;SDS011;40374;49.480;20.016;2022-12-04T04:32:37;237.00;;;93.55;;
54464;SDS011;40374;49.480;20.016;2022-12-04T04:45:39;226.40;;;89.53;;
54464;SDS011;40374;49.480;20.016;2022-12-04T04:48:22;251.93;;;92.80;;
54464;SDS011;40374;49.480;20.016;2022-12-04T04:50:55;238.63;;;91.60;;
54464;SDS011;40374;49.480;20.016;2022-12-04T04:53:27;238.82;;;91.53;;
54464;SDS011;40374;49.480;20.016;2022-12-04T04:56:00;240.98;;;98.72;;
54464;SDS011;40374;49.480;20.016;2022-12-04T04:58:28;242.57;;;94.40;;
54464;SDS011;40374;49.480;20.016;2022-12-04T05:01:00;232.60;;;88.03;;
54464;SDS011;40374;49.480;20.016;2022-12-04T05:03:29;217.80;;;83.32;;
54464;SDS011;40374;49.480;20.016;2022-12-04T05:05:57;195.88;;;76.93;;
54464;SDS011;40374;49.480;20.016;2022-12-04T05:08:25;215.20;;;78.85;;
54464;SDS011;40374;49.480;20.016;2022-12-04T05:10:53;208.00;;;78.18;;
54464;SDS011;40374;49.480;20.016;2022-12-04T05:13:20;214.52;;;80.82;;
54464;SDS011;40374;49.480;20.016;2022-12-04T05:15:55;207.60;;;76.32;;
54464;SDS011;40374;49.480;20.016;2022-12-04T05:18:27;209.30;;;79.05;;
54464;SDS011;40374;49.480;20.016;2022-12-04T05:20:55;204.52;;;75.93;;
54464;SDS011;40374;49.480;20.016;2022-12-04T05:23:23;209.30;;;78.60;;
54464;SDS011;40374;49.480;20.016;2022-12-04T05:25:57;224.93;;;83.82;;
54464;SDS011;40374;49.480;20.016;2022-12-04T05:28:28;234.75;;;85.80;;
54464;SDS011;40374;49.480;20.016;2022-12-04T05:30:56;242.90;;;92.18;;
54464;SDS011;40374;49.480;20.016;2022-12-04T05:33:25;236.07;;;88.55;;
54464;SDS011;40374;49.480;20.016;2022-12-04T05:35:57;328.50;;;110.38;;
54464;SDS011;40374;49.480;20.016;2022-12-04T05:38:29;288.95;;;98.88;;
54464;SDS011;40374;49.480;20.016;2022-12-04T05:40:57;254.95;;;95.68;;
54464;SDS011;40374;49.480;20.016;2022-12-04T05:49:56;248.60;;;90.20;;
54464;SDS011;40374;49.480;20.016;2022-12-04T05:53:07;235.77;;;82.05;;
54464;SDS011;40374;49.480;20.016;2022-12-04T05:55:35;195.30;;;73.95;;
54464;SDS011;40374;49.480;20.016;2022-12-04T05:58:03;200.23;;;74.30;;
54464;SDS011;40374;49.480;20.016;2022-12-04T06:00:30;225.90;;;77.93;;
54464;SDS011;40374;49.480;20.016;2022-12-04T06:02:58;252.05;;;90.15;;
54464;SDS011;40374;49.480;20.016;2022-12-04T06:05:25;238.43;;;88.35;;
54464;SDS011;40374;49.480;20.016;2022-12-04T06:07:53;247.20;;;90.53;;
54464;SDS011;40374;49.480;20.016;2022-12-04T06:10:20;218.32;;;82.53;;
54464;SDS011;40374;49.480;20.016;2022-12-04T06:12:48;206.50;;;75.45;;
54464;SDS011;40374;49.480;20.016;2022-12-04T06:15:15;199.35;;;73.32;;
54464;SDS011;40374;49.480;20.016;2022-12-04T06:17:43;209.25;;;77.22;;
54464;SDS011;40374;49.480;20.016;2022-12-04T06:20:10;205.57;;;75.65;;
54464;SDS011;40374;49.480;20.016;2022-12-04T06:22:40;264.67;;;96.07;;
54464;SDS011;40374;49.480;20.016;2022-12-04T06:25:07;268.45;;;95.07;;
54464;SDS011;40374;49.480;20.016;2022-12-04T06:27:35;261.35;;;96.60;;
54464;SDS011;40374;49.480;20.016;2022-12-04T06:30:05;289.20;;;112.60;;
54464;SDS011;40374;49.480;20.016;2022-12-04T06:32:33;277.98;;;104.22;;
54464;SDS011;40374;49.480;20.016;2022-12-04T06:35:01;251.45;;;97.70;;
54464;SDS011;40374;49.480;20.016;2022-12-04T06:37:28;224.25;;;86.32;;
54464;SDS011;40374;49.480;20.016;2022-12-04T06:39:55;195.02;;;71.72;;
54464;SDS011;40374;49.480;20.016;2022-12-04T06:42:23;203.90;;;73.28;;
54464;SDS011;40374;49.480;20.016;2022-12-04T06:44:51;200.35;;;73.07;;
54464;SDS011;40374;49.480;20.016;2022-12-04T06:47:18;192.18;;;73.15;;
54464;SDS011;40374;49.480;20.016;2022-12-04T06:49:47;194.73;;;75.10;;
54464;SDS011;40374;49.480;20.016;2022-12-04T06:52:17;178.05;;;70.70;;
54464;SDS011;40374;49.480;20.016;2022-12-04T06:54:44;183.10;;;70.90;;
54464;SDS011;40374;49.480;20.016;2022-12-04T06:57:11;197.02;;;71.97;;
54464;SDS011;40374;49.480;20.016;2022-12-04T06:59:39;189.07;;;71.80;;
54464;SDS011;40374;49.480;20.016;2022-12-04T07:02:07;222.80;;;80.82;;
54464;SDS011;40374;49.480;20.016;2022-12-04T07:04:35;225.95;;;86.57;;
54464;SDS011;40374;49.480;20.016;2022-12-04T07:07:02;210.80;;;79.20;;
54464;SDS011;40374;49.480;20.016;2022-12-04T07:09:30;235.80;;;90.65;;
54464;SDS011;40374;49.480;20.016;2022-12-04T07:11:57;261.75;;;98.90;;
54464;SDS011;40374;49.480;20.016;2022-12-04T07:14:25;269.45;;;103.13;;
54464;SDS011;40374;49.480;20.016;2022-12-04T07:16:52;317.85;;;116.05;;
54464;SDS011;40374;49.480;20.016;2022-12-04T07:19:20;253.35;;;94.00;;
54464;SDS011;40374;49.480;20.016;2022-12-04T07:21:47;268.65;;;100.28;;
54464;SDS011;40374;49.480;20.016;2022-12-04T07:24:15;246.70;;;94.78;;
54464;SDS011;40374;49.480;20.016;2022-12-04T07:26:43;296.35;;;111.07;;
54464;SDS011;40374;49.480;20.016;2022-12-04T07:29:11;300.15;;;109.57;;
54464;SDS011;40374;49.480;20.016;2022-12-04T07:31:38;248.50;;;95.75;;
54464;SDS011;40374;49.480;20.016;2022-12-04T07:34:06;255.18;;;96.63;;
54464;SDS011;40374;49.480;20.016;2022-12-04T07:36:34;277.52;;;101.90;;
54464;SDS011;40374;49.480;20.016;2022-12-04T07:39:01;239.13;;;93.10;;
54464;SDS011;40374;49.480;20.016;2022-12-04T07:41:29;181.52;;;78.35;;
54464;SDS011;40374;49.480;20.016;2022-12-04T07:43:57;157.93;;;63.83;;
54464;SDS011;40374;49.480;20.016;2022-12-04T07:46:25;158.68;;;66.35;;
54464;SDS011;40374;49.480;20.016;2022-12-04T07:48:54;140.77;;;59.15;;
54464;SDS011;40374;49.480;20.016;2022-12-04T07:51:24;158.88;;;65.07;;
54464;SDS011;40374;49.480;20.016;2022-12-04T07:53:53;154.85;;;61.08;;
54464;SDS011;40374;49.480;20.016;2022-12-04T07:56:29;150.73;;;61.70;;
54464;SDS011;40374;49.480;20.016;2022-12-04T07:58:56;145.23;;;64.80;;
54464;SDS011;40374;49.480;20.016;2022-12-04T08:01:25;162.70;;;67.80;;
54464;SDS011;40374;49.480;20.016;2022-12-04T08:03:54;153.00;;;66.57;;
54464;SDS011;40374;49.480;20.016;2022-12-04T08:06:23;153.35;;;63.55;;
54464;SDS011;40374;49.480;20.016;2022-12-04T08:08:54;155.10;;;62.42;;
54464;SDS011;40374;49.480;20.016;2022-12-04T08:12:03;168.38;;;64.80;;
54464;SDS011;40374;49.480;20.016;2022-12-04T08:14:36;171.43;;;69.88;;
54464;SDS011;40374;49.480;20.016;2022-12-04T08:17:05;168.90;;;70.50;;
54464;SDS011;40374;49.480;20.016;2022-12-04T08:19:32;166.20;;;75.13;;
54464;SDS011;40374;49.480;20.016;2022-12-04T08:21:59;171.40;;;73.32;;
54464;SDS011;40374;49.480;20.016;2022-12-04T08:24:27;197.13;;;82.55;;
54464;SDS011;40374;49.480;20.016;2022-12-04T08:26:54;194.90;;;82.72;;
54464;SDS011;40374;49.480;20.016;2022-12-04T08:29:21;206.10;;;84.75;;
54464;SDS011;40374;49.480;20.016;2022-12-04T08:31:49;187.52;;;78.85;;
54464;SDS011;40374;49.480;20.016;2022-12-04T08:34:16;187.27;;;78.35;;
54464;SDS011;40374;49.480;20.016;2022-12-04T08:36:44;185.88;;;81.28;;
54464;SDS011;40374;49.480;20.016;2022-12-04T08:39:11;173.05;;;75.43;;
54464;SDS011;40374;49.480;20.016;2022-12-04T08:41:39;173.95;;;75.68;;
54464;SDS011;40374;49.480;20.016;2022-12-04T08:44:07;163.00;;;68.40;;
54464;SDS011;40374;49.480;20.016;2022-12-04T08:46:35;155.43;;;66.38;;
54464;SDS011;40374;49.480;20.016;2022-12-04T08:49:05;147.55;;;65.90;;
54464;SDS011;40374;49.480;20.016;2022-12-04T08:51:32;178.10;;;74.47;;
54464;SDS011;40374;49.480;20.016;2022-12-04T08:54:04;194.60;;;78.32;;
54464;SDS011;40374;49.480;20.016;2022-12-04T08:56:33;176.23;;;73.00;;
54464;SDS011;40374;49.480;20.016;2022-12-04T08:59:02;162.32;;;70.50;;
54464;SDS011;40374;49.480;20.016;2022-12-04T09:01:30;163.48;;;71.32;;
54464;SDS011;40374;49.480;20.016;2022-12-04T09:03:58;188.70;;;78.60;;
54464;SDS011;40374;49.480;20.016;2022-12-04T09:06:26;164.80;;;75.15;;
54464;SDS011;40374;49.480;20.016;2022-12-04T09:08:54;158.60;;;73.35;;
54464;SDS011;40374;49.480;20.016;2022-12-04T09:11:24;147.55;;;70.38;;
54464;SDS011;40374;49.480;20.016;2022-12-04T09:13:53;150.65;;;71.88;;
54464;SDS011;40374;49.480;20.016;2022-12-04T09:16:23;161.45;;;72.53;;
54464;SDS011;40374;49.480;20.016;2022-12-04T09:18:52;147.07;;;70.57;;
54464;SDS011;40374;49.480;20.016;2022-12-04T09:21:21;152.52;;;68.57;;
54464;SDS011;40374;49.480;20.016;2022-12-04T09:23:50;155.43;;;72.10;;
54464;SDS011;40374;49.480;20.016;2022-12-04T09:26:22;142.40;;;68.85;;
54464;SDS011;40374;49.480;20.016;2022-12-04T09:28:50;163.98;;;77.38;;
54464;SDS011;40374;49.480;20.016;2022-12-04T09:31:19;178.98;;;82.00;;
54464;SDS011;40374;49.480;20.016;2022-12-04T09:33:47;182.40;;;79.03;;
54464;SDS011;40374;49.480;20.016;2022-12-04T09:36:16;191.25;;;81.50;;
54464;SDS011;40374;49.480;20.016;2022-12-04T09:38:46;270.38;;;105.57;;
54464;SDS011;40374;49.480;20.016;2022-12-04T09:44:21;221.10;;;93.88;;
54464;SDS011;40374;49.480;20.016;2022-12-04T09:47:04;273.25;;;100.93;;
54464;SDS011;40374;49.480;20.016;2022-12-04T09:49:43;250.05;;;96.18;;
54464;SDS011;40374;49.480;20.016;2022-12-04T09:52:25;207.20;;;87.20;;
54464;SDS011;40374;49.480;20.016;2022-12-04T09:54:57;878.83;;;305.02;;
54464;SDS011;40374;49.480;20.016;2022-12-04T09:57:37;687.28;;;228.27;;
54464;SDS011;40374;49.480;20.016;2022-12-04T10:00:16;619.50;;;214.10;;
54464;SDS011;40374;49.480;20.016;2022-12-04T10:24:50;216.20;;;85.38;;
54464;SDS011;40374;49.480;20.016;2022-12-04T10:30:21;321.40;;;106.28;;
54464;SDS011;40374;49.480;20.016;2022-12-04T10:33:13;321.80;;;110.38;;
54464;SDS011;40374;49.480;20.016;2022-12-04T10:35:45;170.05;;;71.57;;
54464;SDS011;40374;49.480;20.016;2022-12-04T10:41:03;186.10;;;74.32;;
54464;SDS011;40374;49.480;20.016;2022-12-04T10:43:51;157.80;;;62.40;;
54464;SDS011;40374;49.480;20.016;2022-12-04T10:46:23;201.65;;;70.75;;
54464;SDS011;40374;49.480;20.016;2022-12-04T10:48:58;108.75;;;47.40;;
54464;SDS011;40374;49.480;20.016;2022-12-04T10:51:30;89.30;;;43.97;;
54464;SDS011;40374;49.480;20.016;2022-12-04T10:54:50;103.18;;;43.60;;
54464;SDS011;40374;49.480;20.016;2022-12-04T10:57:11;76.32;;;34.63;;
54464;SDS011;40374;49.480;20.016;2022-12-04T10:59:49;95.18;;;42.00;;
54464;SDS011;40374;49.480;20.016;2022-12-04T11:02:31;105.55;;;51.30;;
54464;SDS011;40374;49.480;20.016;2022-12-04T11:05:02;123.10;;;54.67;;
54464;SDS011;40374;49.480;20.016;2022-12-04T11:07:49;168.57;;;67.47;;
54464;SDS011;40374;49.480;20.016;2022-12-04T11:10:37;409.75;;;139.25;;
54464;SDS011;40374;49.480;20.016;2022-12-04T11:15:45;139.43;;;63.22;;
54464;SDS011;40374;49.480;20.016;2022-12-04T11:23:26;105.50;;;48.47;;
54464;SDS011;40374;49.480;20.016;2022-12-04T11:25:58;242.35;;;84.55;;
54464;SDS011;40374;49.480;20.016;2022-12-04T11:28:32;85.85;;;46.65;;
54464;SDS011;40374;49.480;20.016;2022-12-04T11:31:09;97.75;;;47.38;;
54464;SDS011;40374;49.480;20.016;2022-12-04T11:36:20;62.20;;;32.78;;
54464;SDS011;40374;49.480;20.016;2022-12-04T11:38:51;87.90;;;38.17;;
54464;SDS011;40374;49.480;20.016;2022-12-04T11:41:30;57.58;;;26.73;;
54464;SDS011;40374;49.480;20.016;2022-12-04T11:43:59;48.90;;;22.10;;
54464;SDS011;40374;49.480;20.016;2022-12-04T11:46:28;39.15;;;15.98;;
54464;SDS011;40374;49.480;20.016;2022-12-04T11:48:57;40.63;;;19.45;;
54464;SDS011;40374;49.480;20.016;2022-12-04T11:52:28;32.58;;;15.55;;
54464;SDS011;40374;49.480;20.016;2022-12-04T11:57:47;29.20;;;15.18;;
54464;SDS011;40374;49.480;20.016;2022-12-04T12:00:20;21.33;;;10.63;;
54464;SDS011;40374;49.480;20.016;2022-12-04T12:02:59;19.33;;;9.23;;
54464;SDS011;40374;49.480;20.016;2022-12-04T12:08:32;22.02;;;12.90;;
54464;SDS011;40374;49.480;20.016;2022-12-04T12:11:14;28.33;;;15.25;;
54464;SDS011;40374;49.480;20.016;2022-12-04T12:14:08;34.05;;;19.52;;
54464;SDS011;40374;49.480;20.016;2022-12-04T12:19:45;14.80;;;8.15;;
54464;SDS011;40374;49.480;20.016;2022-12-04T12:26:00;20.98;;;11.23;;
54464;SDS011;40374;49.480;20.016;2022-12-04T12:36:49;22.92;;;11.07;;
54464;SDS011;40374;49.480;20.016;2022-12-04T12:42:37;18.10;;;7.20;;
54464;SDS011;40374;49.480;20.016;2022-12-04T12:47:44;19.63;;;10.68;;
54464;SDS011;40374;49.480;20.016;2022-12-04T12:55:22;30.02;;;14.18;;
54464;SDS011;40374;49.480;20.016;2022-12-04T13:00:44;34.00;;;14.77;;
54464;SDS011;40374;49.480;20.016;2022-12-04T13:03:27;19.35;;;9.10;;
54464;SDS011;40374;49.480;20.016;2022-12-04T13:06:05;35.67;;;15.38;;
54464;SDS011;40374;49.480;20.016;2022-12-04T13:08:39;104.40;;;41.77;;
54464;SDS011;40374;49.480;20.016;2022-12-04T13:11:19;59.00;;;24.85;;
54464;SDS011;40374;49.480;20.016;2022-12-04T13:14:00;39.10;;;15.00;;
54464;SDS011;40374;49.480;20.016;2022-12-04T13:16:40;23.05;;;11.70;;
54464;SDS011;40374;49.480;20.016;2022-12-04T13:19:39;33.63;;;14.30;;
54464;SDS011;40374;49.480;20.016;2022-12-04T13:31:06;30.08;;;12.80;;
54464;SDS011;40374;49.480;20.016;2022-12-04T13:36:58;33.90;;;14.80;;
54464;SDS011;40374;49.480;20.016;2022-12-04T13:42:25;23.88;;;11.02;;
54464;SDS011;40374;49.480;20.016;2022-12-04T13:44:58;30.65;;;13.25;;
54464;SDS011;40374;49.480;20.016;2022-12-04T13:47:31;33.78;;;14.07;;
54464;SDS011;40374;49.480;20.016;2022-12-04T13:50:07;30.92;;;14.82;;
54464;SDS011;40374;49.480;20.016;2022-12-04T13:52:53;29.33;;;13.82;;
54464;SDS011;40374;49.480;20.016;2022-12-04T13:55:22;32.72;;;16.17;;
54464;SDS011;40374;49.480;20.016;2022-12-04T13:58:00;30.67;;;14.65;;
54464;SDS011;40374;49.480;20.016;2022-12-04T14:00:31;20.52;;;11.00;;
54464;SDS011;40374;49.480;20.016;2022-12-04T14:05:52;56.45;;;24.70;;
54464;SDS011;40374;49.480;20.016;2022-12-04T14:08:24;61.65;;;24.80;;
54464;SDS011;40374;49.480;20.016;2022-12-04T14:11:05;65.57;;;27.27;;
54464;SDS011;40374;49.480;20.016;2022-12-04T14:13:41;79.32;;;34.50;;
54464;SDS011;40374;49.480;20.016;2022-12-04T14:16:20;90.10;;;38.47;;
54464;SDS011;40374;49.480;20.016;2022-12-04T14:18:59;146.18;;;51.78;;
54464;SDS011;40374;49.480;20.016;2022-12-04T14:21:42;217.98;;;74.90;;
54464;SDS011;40374;49.480;20.016;2022-12-04T14:24:26;197.55;;;72.53;;
54464;SDS011;40374;49.480;20.016;2022-12-04T14:26:55;131.05;;;53.03;;
54464;SDS011;40374;49.480;20.016;2022-12-04T14:32:15;178.73;;;80.80;;
54464;SDS011;40374;49.480;20.016;2022-12-04T14:34:47;189.88;;;82.57;;
54464;SDS011;40374;49.480;20.016;2022-12-04T14:37:17;197.73;;;91.30;;
54464;SDS011;40374;49.480;20.016;2022-12-04T14:39:49;194.25;;;90.75;;
54464;SDS011;40374;49.480;20.016;2022-12-04T14:42:22;224.75;;;96.18;;
54464;SDS011;40374;49.480;20.016;2022-12-04T14:44:58;194.90;;;84.88;;
54464;SDS011;40374;49.480;20.016;2022-12-04T14:47:33;191.95;;;85.22;;
54464;SDS011;40374;49.480;20.016;2022-12-04T14:58:53;182.18;;;80.85;;
54464;SDS011;40374;49.480;20.016;2022-12-04T15:01:55;201.30;;;87.50;;
54464;SDS011;40374;49.480;20.016;2022-12-04T15:06:59;183.55;;;82.43;;
54464;SDS011;40374;49.480;20.016;2022-12-04T15:09:29;216.48;;;91.85;;
54464;SDS011;40374;49.480;20.016;2022-12-04T15:20:50;231.82;;;97.60;;
54464;SDS011;40374;49.480;20.016;2022-12-04T15:23:27;261.02;;;109.82;;
54464;SDS011;40374;49.480;20.016;2022-12-04T15:25:59;237.02;;;101.65;;
54464;SDS011;40374;49.480;20.016;2022-12-04T15:28:42;241.23;;;101.75;;
54464;SDS011;40374;49.480;20.016;2022-12-04T15:31:14;224.55;;;94.22;;
54464;SDS011;40374;49.480;20.016;2022-12-04T15:33:47;136.80;;;57.08;;
54464;SDS011;40374;49.480;20.016;2022-12-04T15:38:51;70.15;;;28.50;;
54464;SDS011;40374;49.480;20.016;2022-12-04T15:41:29;133.35;;;52.13;;
54464;SDS011;40374;49.480;20.016;2022-12-04T15:44:00;132.75;;;51.33;;
54464;SDS011;40374;49.480;20.016;2022-12-04T15:46:30;185.20;;;72.22;;
54464;SDS011;40374;49.480;20.016;2022-12-04T15:49:05;199.75;;;77.63;;
54464;SDS011;40374;49.480;20.016;2022-12-04T15:51:46;197.57;;;74.75;;
54464;SDS011;40374;49.480;20.016;2022-12-04T15:54:22;184.93;;;75.50;;
54464;SDS011;40374;49.480;20.016;2022-12-04T15:57:01;196.38;;;78.55;;
54464;SDS011;40374;49.480;20.016;2022-12-04T15:59:30;169.57;;;68.07;;
54464;SDS011;40374;49.480;20.016;2022-12-04T16:02:07;130.85;;;50.13;;
54464;SDS011;40374;49.480;20.016;2022-12-04T16:04:50;129.02;;;48.35;;
54464;SDS011;40374;49.480;20.016;2022-12-04T16:07:19;122.45;;;50.63;;
54464;SDS011;40374;49.480;20.016;2022-12-04T16:09:51;153.32;;;60.40;;
54464;SDS011;40374;49.480;20.016;2022-12-04T16:12:29;179.98;;;69.10;;
54464;SDS011;40374;49.480;20.016;2022-12-04T16:14:58;220.55;;;87.03;;
54464;SDS011;40374;49.480;20.016;2022-12-04T16:17:29;218.52;;;88.18;;
54464;SDS011;40374;49.480;20.016;2022-12-04T16:19:58;207.48;;;81.70;;
54464;SDS011;40374;49.480;20.016;2022-12-04T16:22:27;215.70;;;85.13;;
54464;SDS011;40374;49.480;20.016;2022-12-04T16:24:56;285.05;;;116.05;;
54464;SDS011;40374;49.480;20.016;2022-12-04T16:27:24;275.52;;;110.75;;
54464;SDS011;40374;49.480;20.016;2022-12-04T16:29:53;315.10;;;120.75;;
54464;SDS011;40374;49.480;20.016;2022-12-04T16:32:23;301.80;;;116.80;;
54464;SDS011;40374;49.480;20.016;2022-12-04T16:34:55;238.63;;;93.90;;
54464;SDS011;40374;49.480;20.016;2022-12-04T16:37:23;213.55;;;81.60;;
54464;SDS011;40374;49.480;20.016;2022-12-04T16:39:57;171.60;;;61.83;;
54464;SDS011;40374;49.480;20.016;2022-12-04T16:42:28;133.45;;;50.85;;
54464;SDS011;40374;49.480;20.016;2022-12-04T16:44:57;124.30;;;48.20;;
54464;SDS011;40374;49.480;20.016;2022-12-04T16:47:28;141.57;;;53.30;;
54464;SDS011;40374;49.480;20.016;2022-12-04T16:49:58;176.98;;;64.68;;
54464;SDS011;40374;49.480;20.016;2022-12-04T16:52:26;251.13;;;95.38;;
54464;SDS011;40374;49.480;20.016;2022-12-04T16:54:55;282.33;;;109.90;;
54464;SDS011;40374;49.480;20.016;2022-12-04T16:57:32;271.10;;;99.95;;
54464;SDS011;40374;49.480;20.016;2022-12-04T17:00:00;272.25;;;105.50;;
54464;SDS011;40374;49.480;20.016;2022-12-04T17:02:29;275.40;;;103.68;;
54464;SDS011;40374;49.480;20.016;2022-12-04T17:04:58;280.02;;;109.15;;
54464;SDS011;40374;49.480;20.016;2022-12-04T17:07:26;294.38;;;108.03;;
54464;SDS011;40374;49.480;20.016;2022-12-04T17:09:54;283.83;;;107.57;;
54464;SDS011;40374;49.480;20.016;2022-12-04T17:12:22;277.58;;;103.78;;